Time;durP1;ratioP1;P1;durP2;ratioP2;P2;SDS_P1;SDS_P2;PMS_P1;PMS_P2;Temp;Humidity;BMP_temperature;BMP_pressure;BME280_temperature;BME280_humidity;BME280_pressure;Samples;Min_cycle;Max_cycle;Signal;HPM_P1;HPM_P2
2021/01/09 00:00:03;;;;;;;11.88;7.80;;;4.00;99.90;;;;;;5052784;28;20056;-60
2021/01/09 00:02:29;;;;;;;13.85;8.05;;;4.10;99.90;;;;;;5051968;28;20036;-60
2021/01/09 00:04:55;;;;;;;11.38;7.45;;;4.10;99.90;;;;;;5051086;28;20028;-62
2021/01/09 00:07:20;;;;;;;9.73;7.07;;;4.10;99.90;;;;;;5050109;28;20024;-61
2021/01/09 00:09:46;;;;;;;10.73;6.55;;;4.20;99.90;;;;;;5052487;28;20029;-61
2021/01/09 00:12:12;;;;;;;11.88;7.40;;;4.10;99.90;;;;;;5053041;28;20493;-62
2021/01/09 00:14:39;;;;;;;10.15;6.78;;;4.00;99.90;;;;;;5051784;28;20108;-66
2021/01/09 00:17:06;;;;;;;13.70;7.35;;;3.90;99.90;;;;;;5053035;28;20082;-62
2021/01/09 00:19:32;;;;;;;10.05;6.50;;;4.10;99.90;;;;;;5034102;28;20024;-61
2021/01/09 00:21:58;;;;;;;12.55;7.65;;;3.90;99.90;;;;;;5052261;28;20108;-61
2021/01/09 00:24:23;;;;;;;13.80;6.82;;;4.00;99.90;;;;;;5051583;28;20033;-62
2021/01/09 00:26:49;;;;;;;11.68;7.53;;;3.90;99.90;;;;;;5052686;28;20074;-61
2021/01/09 00:29:15;;;;;;;11.63;6.93;;;3.90;99.90;;;;;;5052424;28;20043;-60
2021/01/09 00:31:41;;;;;;;12.15;7.60;;;3.90;99.90;;;;;;5050182;28;20036;-60
2021/01/09 00:34:07;;;;;;;11.77;7.18;;;3.90;99.90;;;;;;5050716;28;20029;-61
2021/01/09 00:36:33;;;;;;;11.82;7.45;;;3.80;99.90;;;;;;5050586;28;20064;-60
2021/01/09 00:38:58;;;;;;;15.98;10.15;;;3.70;99.90;;;;;;5051261;28;20052;-65
2021/01/09 00:41:29;;;;;;;12.52;7.70;;;3.90;99.90;;;;;;5051576;28;20029;-61
2021/01/09 00:43:55;;;;;;;12.55;7.10;;;3.80;99.90;;;;;;5052556;28;20028;-64
2021/01/09 00:46:21;;;;;;;10.52;7.40;;;3.90;99.90;;;;;;5051756;28;20029;-65
2021/01/09 00:48:47;;;;;;;10.60;6.65;;;3.80;99.90;;;;;;5050932;28;20116;-61
2021/01/09 00:51:14;;;;;;;10.77;6.57;;;3.90;99.90;;;;;;5051848;28;20029;-62
2021/01/09 00:53:40;;;;;;;11.40;7.70;;;3.80;99.90;;;;;;5051402;28;20268;-60
2021/01/09 00:56:07;;;;;;;13.18;7.60;;;4.00;99.90;;;;;;5051879;28;20458;-61
2021/01/09 00:58:33;;;;;;;12.27;7.30;;;3.90;99.90;;;;;;5049422;28;20527;-61
2021/01/09 01:00:59;;;;;;;11.90;7.45;;;3.90;99.90;;;;;;5050800;28;20490;-61
2021/01/09 01:03:25;;;;;;;11.27;7.45;;;3.90;99.90;;;;;;5051136;28;20021;-61
2021/01/09 01:05:51;;;;;;;9.77;6.45;;;3.80;99.90;;;;;;5050275;28;20025;-62
2021/01/09 01:08:17;;;;;;;11.30;7.55;;;3.90;99.90;;;;;;5051664;28;20071;-60
2021/01/09 01:10:42;;;;;;;10.48;6.72;;;3.90;99.90;;;;;;5051465;28;20765;-60
2021/01/09 01:13:08;;;;;;;11.73;7.53;;;3.90;99.90;;;;;;5050403;28;20021;-60
2021/01/09 01:15:34;;;;;;;10.43;6.82;;;3.90;99.90;;;;;;5050468;28;20045;-60
2021/01/09 01:18:00;;;;;;;10.27;6.38;;;3.80;99.90;;;;;;5051732;28;20056;-62
2021/01/09 01:20:26;;;;;;;11.23;7.03;;;3.80;99.90;;;;;;5050835;28;20479;-61
2021/01/09 01:22:52;;;;;;;11.77;6.75;;;3.80;99.90;;;;;;5053308;28;20037;-60
2021/01/09 01:25:17;;;;;;;13.30;7.63;;;3.90;99.90;;;;;;5055480;28;20033;-61
2021/01/09 01:27:43;;;;;;;10.38;6.70;;;3.90;99.90;;;;;;5055320;28;20604;-62
2021/01/09 01:30:09;;;;;;;11.88;7.47;;;3.90;99.90;;;;;;5055596;28;20115;-61
2021/01/09 01:32:34;;;;;;;11.05;6.85;;;3.80;99.90;;;;;;5054825;28;20379;-61
2021/01/09 01:35:01;;;;;;;10.93;7.25;;;3.90;99.90;;;;;;5055379;28;20456;-61
2021/01/09 01:37:26;;;;;;;10.88;7.30;;;3.80;99.90;;;;;;5054619;28;20039;-61
2021/01/09 01:39:52;;;;;;;11.00;7.10;;;3.90;99.90;;;;;;5054326;28;20021;-61
2021/01/09 01:42:18;;;;;;;12.13;7.43;;;3.80;99.90;;;;;;5053924;28;20079;-61
2021/01/09 01:44:44;;;;;;;11.05;6.35;;;3.90;99.90;;;;;;5054352;28;20024;-61
2021/01/09 01:47:16;;;;;;;11.48;7.05;;;3.90;99.90;;;;;;5053416;28;20048;-61
2021/01/09 01:49:43;;;;;;;12.00;7.30;;;3.80;99.90;;;;;;5054621;28;20017;-61
2021/01/09 01:52:08;;;;;;;14.05;7.72;;;3.80;99.90;;;;;;5054783;28;20061;-61
2021/01/09 01:54:34;;;;;;;10.75;6.97;;;3.80;99.90;;;;;;5054078;28;20071;-62
2021/01/09 01:57:02;;;;;;;10.68;7.35;;;3.70;99.90;;;;;;5053750;28;20040;-62
2021/01/09 01:59:27;;;;;;;11.20;7.25;;;3.80;99.90;;;;;;5052407;28;20053;-60
2021/01/09 02:01:54;;;;;;;13.32;7.15;;;3.80;99.90;;;;;;5053595;28;20052;-62
2021/01/09 02:04:19;;;;;;;10.57;6.90;;;3.70;99.90;;;;;;5054693;28;20441;-61
2021/01/09 02:06:48;;;;;;;11.43;7.28;;;3.80;99.90;;;;;;5052587;28;20230;-60
2021/01/09 02:09:27;;;;;;;10.88;6.97;;;3.80;99.90;;;;;;5053416;28;20120;-60
2021/01/09 02:12:04;;;;;;;9.60;7.32;;;3.80;99.90;;;;;;5053463;28;20558;-60
2021/01/09 02:14:42;;;;;;;11.85;7.22;;;3.70;99.90;;;;;;5052689;28;20063;-60
2021/01/09 02:17:09;;;;;;;9.57;6.60;;;3.70;99.90;;;;;;5055489;28;20037;-60
2021/01/09 02:19:38;;;;;;;11.52;7.07;;;3.80;99.90;;;;;;5053565;28;20025;-60
2021/01/09 02:22:05;;;;;;;13.18;7.07;;;3.80;99.90;;;;;;5054402;28;20024;-60
2021/01/09 02:24:31;;;;;;;13.55;7.68;;;3.80;99.90;;;;;;5053664;28;20512;-60
2021/01/09 02:26:58;;;;;;;12.15;6.97;;;3.70;99.90;;;;;;5054347;28;20025;-60
2021/01/09 02:29:27;;;;;;;9.85;7.20;;;3.70;99.90;;;;;;5054917;28;20025;-62
2021/01/09 02:32:01;;;;;;;9.73;6.85;;;3.80;99.90;;;;;;5054031;28;20458;-61
2021/01/09 02:34:44;;;;;;;10.40;6.72;;;3.70;99.90;;;;;;5052714;28;20033;-67
2021/01/09 02:37:10;;;;;;;10.38;6.30;;;3.80;99.90;;;;;;5052955;28;20048;-61
2021/01/09 02:39:36;;;;;;;10.45;7.00;;;3.70;99.90;;;;;;5053209;28;20028;-62
2021/01/09 02:42:03;;;;;;;11.98;6.95;;;3.70;99.90;;;;;;5054270;28;20382;-61
2021/01/09 02:44:30;;;;;;;11.10;6.53;;;3.70;99.90;;;;;;5054693;28;20033;-67
2021/01/09 02:46:56;;;;;;;11.25;6.68;;;3.60;99.90;;;;;;5055772;28;20477;-62
2021/01/09 02:49:22;;;;;;;9.65;6.20;;;3.70;99.90;;;;;;5055361;28;20025;-62
2021/01/09 02:51:47;;;;;;;10.10;6.55;;;3.70;99.90;;;;;;5053450;28;20021;-60
2021/01/09 02:54:13;;;;;;;10.15;6.47;;;3.60;99.90;;;;;;5054892;28;20471;-60
2021/01/09 02:56:39;;;;;;;11.27;6.60;;;3.70;99.90;;;;;;5051965;28;20120;-60
2021/01/09 02:59:04;;;;;;;9.80;5.80;;;3.60;99.90;;;;;;5053424;28;20536;-61
2021/01/09 03:01:31;;;;;;;9.20;6.32;;;3.60;99.90;;;;;;5054236;28;20052;-63
2021/01/09 03:03:57;;;;;;;9.93;5.80;;;3.70;99.90;;;;;;5054038;28;20025;-68
2021/01/09 03:06:24;;;;;;;11.02;6.82;;;3.70;99.90;;;;;;5054023;28;20039;-60
2021/01/09 03:08:50;;;;;;;10.80;6.75;;;3.80;99.90;;;;;;5052398;28;20033;-60
2021/01/09 03:11:16;;;;;;;8.00;5.35;;;3.80;99.90;;;;;;5054591;28;20055;-61
2021/01/09 03:13:43;;;;;;;10.70;6.60;;;3.70;99.90;;;;;;5053720;28;20021;-61
2021/01/09 03:16:09;;;;;;;9.85;6.07;;;3.80;99.90;;;;;;5054038;28;20520;-61
2021/01/09 03:18:35;;;;;;;9.35;5.60;;;3.80;99.90;;;;;;5052414;28;20522;-62
2021/01/09 03:21:00;;;;;;;9.38;5.57;;;3.70;99.90;;;;;;5053315;28;20108;-60
2021/01/09 03:23:26;;;;;;;8.43;5.43;;;3.80;99.90;;;;;;5051981;28;20025;-61
2021/01/09 03:25:52;;;;;;;8.82;6.03;;;3.70;99.90;;;;;;5052494;28;20466;-61
2021/01/09 03:28:17;;;;;;;8.55;5.85;;;3.80;99.90;;;;;;5051489;28;20032;-62
2021/01/09 03:30:43;;;;;;;10.50;6.07;;;3.80;99.90;;;;;;5052469;28;20036;-62
2021/01/09 03:33:09;;;;;;;10.57;5.47;;;3.60;99.90;;;;;;5051829;28;20037;-61
2021/01/09 03:35:35;;;;;;;9.05;5.75;;;3.70;99.90;;;;;;5052490;28;20032;-62
2021/01/09 03:38:01;;;;;;;8.27;5.40;;;3.70;99.90;;;;;;5051830;28;20033;-61
2021/01/09 03:40:27;;;;;;;9.02;5.85;;;3.70;99.90;;;;;;5051904;28;20067;-63
2021/01/09 03:42:52;;;;;;;9.55;5.32;;;3.70;99.90;;;;;;5050433;28;20542;-59
2021/01/09 03:45:18;;;;;;;11.80;6.15;;;3.60;99.90;;;;;;5052832;28;20033;-60
2021/01/09 03:47:44;;;;;;;10.32;5.40;;;3.60;99.90;;;;;;5052275;28;20056;-63
2021/01/09 03:50:09;;;;;;;10.23;6.10;;;3.60;99.90;;;;;;5051617;28;20496;-61
2021/01/09 03:52:38;;;;;;;9.82;6.20;;;3.60;99.90;;;;;;5052279;28;20036;-65
2021/01/09 03:55:04;;;;;;;9.40;6.25;;;3.60;99.90;;;;;;5051414;28;20036;-62
2021/01/09 03:57:30;;;;;;;9.63;5.53;;;3.60;99.90;;;;;;5052498;28;20029;-69
2021/01/09 03:59:56;;;;;;;10.43;6.63;;;3.60;99.90;;;;;;5052037;28;20133;-59
2021/01/09 04:02:21;;;;;;;11.25;6.68;;;3.70;99.90;;;;;;5051351;28;20116;-62
2021/01/09 04:04:47;;;;;;;9.75;6.53;;;3.60;99.90;;;;;;5051847;28;20138;-62
2021/01/09 04:07:13;;;;;;;7.88;5.55;;;3.70;99.90;;;;;;5052475;28;20075;-61
2021/01/09 04:09:38;;;;;;;9.93;6.43;;;3.70;99.90;;;;;;5052043;28;20382;-61
2021/01/09 04:12:04;;;;;;;12.32;6.72;;;3.60;99.90;;;;;;5052255;28;20048;-64
2021/01/09 04:14:30;;;;;;;10.65;6.57;;;3.60;99.90;;;;;;5052212;28;20060;-67
2021/01/09 04:16:56;;;;;;;12.88;7.38;;;3.60;99.90;;;;;;5050632;28;20029;-62
2021/01/09 04:19:22;;;;;;;11.23;6.43;;;3.50;99.90;;;;;;5052403;28;20095;-63
2021/01/09 04:21:52;;;;;;;11.13;6.78;;;3.60;99.90;;;;;;5050074;28;20064;-61
2021/01/09 04:24:19;;;;;;;11.50;6.93;;;3.60;99.90;;;;;;5052275;28;20074;-60
2021/01/09 04:26:50;;;;;;;11.70;6.75;;;3.50;99.90;;;;;;5050228;28;20029;-61
2021/01/09 04:29:16;;;;;;;10.60;7.40;;;3.40;99.90;;;;;;5052130;28;20390;-62
2021/01/09 04:31:41;;;;;;;10.45;6.20;;;3.40;99.90;;;;;;5051169;28;20029;-59
2021/01/09 04:34:07;;;;;;;12.02;7.47;;;3.50;99.90;;;;;;5051805;28;20108;-60
2021/01/09 04:36:33;;;;;;;21.58;7.60;;;3.50;99.90;;;;;;5050497;28;20043;-68
2021/01/09 04:38:58;;;;;;;11.02;6.90;;;3.50;99.90;;;;;;5049856;28;20032;-60
2021/01/09 04:41:24;;;;;;;13.50;7.30;;;3.50;99.90;;;;;;5051847;28;20375;-60
2021/01/09 04:43:50;;;;;;;11.73;7.40;;;3.50;99.90;;;;;;5051200;28;20025;-60
2021/01/09 04:46:17;;;;;;;12.52;7.13;;;3.50;99.90;;;;;;5051767;28;20029;-60
2021/01/09 04:48:44;;;;;;;10.43;7.07;;;3.50;99.90;;;;;;5049510;28;20041;-60
2021/01/09 04:51:10;;;;;;;12.25;7.38;;;3.50;99.90;;;;;;5050822;28;20055;-62
2021/01/09 04:53:39;;;;;;;11.43;6.97;;;3.40;99.90;;;;;;5051597;28;20032;-66
2021/01/09 04:56:05;;;;;;;12.18;7.80;;;3.30;99.90;;;;;;5051789;28;20037;-61
2021/01/09 04:58:32;;;;;;;11.60;7.03;;;3.30;99.90;;;;;;5054887;28;20029;-60
2021/01/09 05:00:58;;;;;;;12.40;7.50;;;3.40;99.90;;;;;;5054603;28;20106;-60
2021/01/09 05:03:24;;;;;;;12.40;7.32;;;3.40;99.90;;;;;;5054735;28;20140;-62
2021/01/09 05:05:50;;;;;;;11.15;7.25;;;3.30;99.90;;;;;;5053494;28;20036;-61
2021/01/09 05:08:16;;;;;;;12.45;7.40;;;3.30;99.90;;;;;;5054793;28;20028;-61
2021/01/09 05:10:43;;;;;;;12.35;7.90;;;3.40;99.90;;;;;;5053957;28;20455;-64
2021/01/09 05:13:08;;;;;;;12.27;8.35;;;3.50;99.90;;;;;;5038191;28;20550;-63
2021/01/09 05:15:43;;;;;;;12.48;8.10;;;3.50;99.90;;;;;;5054580;28;20124;-67
2021/01/09 05:18:09;;;;;;;12.35;8.35;;;3.50;99.90;;;;;;5054171;28;20037;-59
2021/01/09 05:20:34;;;;;;;13.77;7.90;;;3.40;99.90;;;;;;5054592;28;20025;-69
2021/01/09 05:23:01;;;;;;;13.75;9.02;;;3.50;99.90;;;;;;5054259;28;20029;-65
2021/01/09 05:25:27;;;;;;;15.75;9.52;;;3.50;99.90;;;;;;5055490;28;20045;-63
2021/01/09 05:27:54;;;;;;;14.93;9.20;;;3.40;99.90;;;;;;5053218;28;20025;-60
2021/01/09 05:30:21;;;;;;;14.90;8.60;;;3.30;99.90;;;;;;5055148;28;20075;-60
2021/01/09 05:32:47;;;;;;;14.20;8.82;;;3.50;99.90;;;;;;5053492;28;20057;-60
2021/01/09 05:35:13;;;;;;;13.60;8.40;;;3.40;99.90;;;;;;5054759;28;20057;-60
2021/01/09 05:37:39;;;;;;;13.88;8.15;;;3.30;99.90;;;;;;5056368;28;20040;-59
2021/01/09 05:40:06;;;;;;;13.98;8.70;;;3.40;99.90;;;;;;5056311;28;20104;-61
2021/01/09 05:42:34;;;;;;;13.88;9.20;;;3.40;99.90;;;;;;5054557;28;20527;-60
2021/01/09 05:45:00;;;;;;;11.95;7.60;;;3.40;99.90;;;;;;5055003;28;20076;-60
2021/01/09 05:47:30;;;;;;;14.70;9.02;;;3.40;99.90;;;;;;5054786;28;20068;-65
2021/01/09 05:50:00;;;;;;;13.48;8.50;;;3.40;99.90;;;;;;5052871;28;20025;-60
2021/01/09 05:52:27;;;;;;;12.68;8.65;;;3.40;99.90;;;;;;5054091;28;20079;-63
2021/01/09 05:55:02;;;;;;;15.27;8.82;;;3.40;99.90;;;;;;5052947;28;20028;-62
2021/01/09 05:57:29;;;;;;;16.17;8.70;;;3.40;99.90;;;;;;5055262;28;20035;-60
2021/01/09 05:59:59;;;;;;;13.80;9.10;;;3.50;99.90;;;;;;5053445;28;20063;-61
2021/01/09 06:02:25;;;;;;;13.93;8.73;;;3.50;99.90;;;;;;5055774;28;20021;-61
2021/01/09 06:04:58;;;;;;;14.13;8.77;;;3.50;99.90;;;;;;5054816;28;20040;-62
2021/01/09 06:07:33;;;;;;;15.85;9.52;;;3.50;99.90;;;;;;5054197;28;20437;-62
2021/01/09 06:10:11;;;;;;;14.20;9.07;;;3.30;99.90;;;;;;5054501;28;20024;-63
2021/01/09 06:12:57;;;;;;;13.95;8.52;;;3.30;99.90;;;;;;5054801;28;20055;-60
2021/01/09 06:15:24;;;;;;;12.13;7.72;;;3.40;99.90;;;;;;5054614;28;20037;-61
2021/01/09 06:17:52;;;;;;;13.55;8.70;;;3.50;99.90;;;;;;5053394;28;20541;-62
2021/01/09 06:20:19;;;;;;;13.90;8.77;;;3.40;99.90;;;;;;5055393;28;20036;-61
2021/01/09 06:22:45;;;;;;;14.00;9.20;;;3.50;99.90;;;;;;5054728;28;20052;-62
2021/01/09 06:25:11;;;;;;;12.82;8.32;;;3.40;99.90;;;;;;5054266;28;20067;-62
2021/01/09 06:27:40;;;;;;;15.45;9.82;;;3.30;99.90;;;;;;5054005;28;20025;-62
2021/01/09 06:30:09;;;;;;;15.05;8.65;;;3.30;99.90;;;;;;5053724;28;20036;-60
2021/01/09 06:32:40;;;;;;;15.43;9.32;;;3.30;99.90;;;;;;5053950;28;20025;-59
2021/01/09 06:35:08;;;;;;;13.55;8.95;;;3.40;99.90;;;;;;5053586;28;20025;-60
2021/01/09 06:37:34;;;;;;;14.98;8.80;;;3.40;99.90;;;;;;5053966;28;20029;-60
2021/01/09 06:40:01;;;;;;;12.38;7.78;;;3.40;99.90;;;;;;5053084;28;20569;-61
2021/01/09 06:42:28;;;;;;;18.10;10.18;;;3.30;99.90;;;;;;5052844;28;20431;-63
2021/01/09 06:44:54;;;;;;;15.20;8.70;;;3.40;99.90;;;;;;5053082;28;20036;-62
2021/01/09 06:47:23;;;;;;;14.27;9.27;;;3.50;99.90;;;;;;5053859;28;20487;-61
2021/01/09 06:49:49;;;;;;;14.68;9.25;;;3.40;99.90;;;;;;5051875;28;20057;-62
2021/01/09 06:52:15;;;;;;;16.08;8.80;;;3.30;99.90;;;;;;5051893;28;20063;-60
2021/01/09 06:54:45;;;;;;;16.58;8.40;;;3.40;99.90;;;;;;5053398;28;20093;-69
2021/01/09 06:57:20;;;;;;;14.75;8.75;;;3.40;99.90;;;;;;5052161;28;20029;-61
2021/01/09 06:59:48;;;;;;;15.80;7.63;;;3.40;99.90;;;;;;5051515;28;20049;-60
2021/01/09 07:02:19;;;;;;;14.55;9.50;;;3.40;99.90;;;;;;5053503;28;20149;-60
2021/01/09 07:04:58;;;;;;;15.43;8.48;;;3.40;99.90;;;;;;5051363;28;20033;-65
2021/01/09 07:07:53;;;;;;;14.40;9.70;;;3.40;99.90;;;;;;5052201;28;20532;-63
2021/01/09 07:10:29;;;;;;;13.68;8.82;;;3.40;99.90;;;;;;5053767;28;20033;-60
2021/01/09 07:13:06;;;;;;;14.18;8.50;;;3.30;99.90;;;;;;5052505;28;20512;-60
2021/01/09 07:15:36;;;;;;;14.13;9.07;;;3.30;99.90;;;;;;5051940;28;20087;-60
2021/01/09 07:18:05;;;;;;;14.68;9.20;;;3.20;99.90;;;;;;5052848;28;20040;-63
2021/01/09 07:20:44;;;;;;;13.95;8.63;;;3.30;99.90;;;;;;5052544;28;20037;-60
2021/01/09 07:23:14;;;;;;;16.70;9.10;;;3.40;99.90;;;;;;5052341;28;20029;-61
2021/01/09 07:25:42;;;;;;;14.68;9.30;;;3.30;99.90;;;;;;5053354;28;20036;-67
2021/01/09 07:28:20;;;;;;;14.70;8.55;;;3.20;99.90;;;;;;5053137;28;20459;-65
2021/01/09 07:30:46;;;;;;;13.82;8.43;;;3.20;99.90;;;;;;5052897;28;20070;-66
2021/01/09 07:33:15;;;;;;;15.80;8.27;;;3.20;99.90;;;;;;5051427;28;20021;-60
2021/01/09 07:35:43;;;;;;;12.93;8.25;;;3.30;99.90;;;;;;5052510;28;20044;-59
2021/01/09 07:38:09;;;;;;;15.68;9.00;;;3.30;99.90;;;;;;5051339;28;20474;-61
2021/01/09 07:40:55;;;;;;;12.82;8.20;;;3.30;99.90;;;;;;5052743;28;20066;-61
2021/01/09 07:43:47;;;;;;;15.82;8.07;;;3.40;99.90;;;;;;5052749;28;20025;-60
2021/01/09 07:46:32;;;;;;;14.80;8.70;;;3.40;99.90;;;;;;5049537;28;20037;-60
2021/01/09 07:49:03;;;;;;;11.90;7.95;;;3.50;99.90;;;;;;5051092;28;20043;-60
2021/01/09 07:51:48;;;;;;;13.57;7.97;;;3.50;99.90;;;;;;5052644;28;20025;-61
2021/01/09 07:54:40;;;;;;;14.38;8.13;;;3.50;99.90;;;;;;5051481;28;20029;-60
2021/01/09 07:57:24;;;;;;;14.53;8.77;;;3.50;99.90;;;;;;5052048;28;20260;-61
2021/01/09 08:00:00;;;;;;;12.80;7.72;;;3.70;99.90;;;;;;5051640;28;20283;-60
2021/01/09 08:02:26;;;;;;;11.40;8.05;;;3.90;99.90;;;;;;5052615;28;20112;-61
2021/01/09 08:05:03;;;;;;;27.90;7.43;;;4.10;99.90;;;;;;5050227;28;20119;-62
2021/01/09 08:07:30;;;;;;;12.18;7.13;;;4.40;99.90;;;;;;5051309;28;20284;-60
2021/01/09 08:09:55;;;;;;;10.55;7.07;;;4.50;99.90;;;;;;5050563;28;20031;-60
2021/01/09 08:12:25;;;;;;;10.48;7.00;;;4.50;99.90;;;;;;5052811;28;20469;-59
2021/01/09 08:14:51;;;;;;;10.40;7.30;;;4.30;99.90;;;;;;5051371;28;20024;-62
2021/01/09 08:17:17;;;;;;;11.75;7.95;;;4.20;99.90;;;;;;5050579;28;20032;-61
2021/01/09 08:19:43;;;;;;;14.73;7.63;;;4.20;99.90;;;;;;5051043;28;20025;-61
2021/01/09 08:22:10;;;;;;;13.30;7.93;;;4.10;99.90;;;;;;5051460;28;20497;-60
2021/01/09 08:24:35;;;;;;;12.15;8.32;;;4.10;99.90;;;;;;5051189;28;20092;-63
2021/01/09 08:27:01;;;;;;;14.02;7.85;;;4.10;99.90;;;;;;5050402;28;20049;-61
2021/01/09 08:29:28;;;;;;;14.40;7.75;;;4.20;99.90;;;;;;5052411;28;20033;-60
2021/01/09 08:31:55;;;;;;;13.80;8.38;;;4.20;99.90;;;;;;5050428;28;20025;-61
2021/01/09 08:34:22;;;;;;;13.73;8.95;;;4.30;99.90;;;;;;5051110;28;20039;-61
2021/01/09 08:36:57;;;;;;;15.20;8.48;;;4.40;99.90;;;;;;5050958;28;20112;-67
2021/01/09 08:39:23;;;;;;;13.90;8.30;;;4.40;99.90;;;;;;5052282;28;20025;-61
2021/01/09 08:41:51;;;;;;;11.70;7.22;;;4.50;99.90;;;;;;5050757;28;20021;-68
2021/01/09 08:44:17;;;;;;;13.00;7.63;;;4.40;99.90;;;;;;5052641;28;20021;-60
2021/01/09 08:46:44;;;;;;;11.57;7.13;;;4.70;99.90;;;;;;5051048;28;20079;-61
2021/01/09 08:49:27;;;;;;;11.77;7.25;;;5.10;99.90;;;;;;5050463;28;20029;-59
2021/01/09 08:52:04;;;;;;;11.35;7.22;;;6.50;99.70;;;;;;5051439;28;20108;-63
2021/01/09 08:54:31;;;;;;;12.50;8.32;;;8.00;96.60;;;;;;5051141;28;20112;-60
2021/01/09 08:56:57;;;;;;;11.05;7.30;;;8.90;93.70;;;;;;5051375;28;20458;-59
2021/01/09 08:59:23;;;;;;;11.65;7.50;;;8.90;92.90;;;;;;5050556;28;20029;-60
2021/01/09 09:01:57;;;;;;;11.38;7.65;;;8.90;93.00;;;;;;5050221;28;20040;-67
2021/01/09 09:04:23;;;;;;;11.45;7.40;;;8.20;93.80;;;;;;5052124;28;20036;-61
2021/01/09 09:06:54;;;;;;;10.20;7.05;;;7.90;94.20;;;;;;5050597;28;20065;-66
2021/01/09 09:09:24;;;;;;;11.63;7.60;;;8.10;94.40;;;;;;5051040;28;20029;-61
2021/01/09 09:11:52;;;;;;;13.20;7.75;;;8.90;93.50;;;;;;5051766;28;20111;-67
2021/01/09 09:14:18;;;;;;;9.15;6.90;;;9.60;91.60;;;;;;5050675;28;20038;-61
2021/01/09 09:16:44;;;;;;;14.30;7.95;;;10.30;90.70;;;;;;5050518;28;20418;-60
2021/01/09 09:19:13;;;;;;;11.30;7.80;;;10.80;88.70;;;;;;5051045;28;20090;-60
2021/01/09 09:22:02;;;;;;;11.88;7.82;;;11.00;84.20;;;;;;5051792;28;20064;-60
2021/01/09 09:24:57;;;;;;;11.13;7.57;;;11.50;82.90;;;;;;5048586;28;20072;-60
2021/01/09 09:27:26;;;;;;;12.30;8.23;;;11.80;84.60;;;;;;5046707;28;20039;-63
2021/01/09 09:30:13;;;;;;;13.68;6.90;;;12.30;78.30;;;;;;5051352;28;20031;-68
2021/01/09 09:32:43;;;;;;;10.27;6.53;;;12.90;74.20;;;;;;5050056;28;20535;-61
2021/01/09 09:35:21;;;;;;;8.65;6.28;;;13.00;72.80;;;;;;5049639;28;20035;-64
2021/01/09 09:37:48;;;;;;;9.00;7.13;;;12.90;78.70;;;;;;5051412;28;20033;-61
2021/01/09 09:40:29;;;;;;;8.90;7.20;;;12.90;80.50;;;;;;5049832;28;20021;-61
2021/01/09 09:42:55;;;;;;;10.13;7.05;;;13.60;72.50;;;;;;5051587;28;20025;-65
2021/01/09 09:45:21;;;;;;;11.27;6.50;;;14.10;74.10;;;;;;5054790;28;20029;-62
2021/01/09 09:47:50;;;;;;;10.10;6.18;;;14.30;62.60;;;;;;5053626;28;20029;-63
2021/01/09 09:50:21;;;;;;;10.10;5.45;;;14.30;68.50;;;;;;5053136;28;20025;-62
2021/01/09 09:53:00;;;;;;;9.60;6.40;;;14.90;69.60;;;;;;5053831;28;20025;-62
2021/01/09 09:55:26;;;;;;;8.38;6.03;;;14.10;67.80;;;;;;5053419;28;20029;-61
2021/01/09 09:58:12;;;;;;;9.43;5.68;;;14.70;68.40;;;;;;5053760;28;20040;-70
2021/01/09 10:00:45;;;;;;;8.50;5.45;;;15.30;59.40;;;;;;5054799;28;20045;-66
2021/01/09 10:03:12;;;;;;;11.95;5.30;;;15.50;60.10;;;;;;5052892;28;20537;-62
2021/01/09 10:05:38;;;;;;;9.63;6.00;;;15.50;54.30;;;;;;5054626;28;20032;-60
2021/01/09 10:08:15;;;;;;;14.75;4.97;;;15.40;52.90;;;;;;5054031;28;20082;-61
2021/01/09 10:10:50;;;;;;;7.38;5.30;;;14.70;56.10;;;;;;5054457;28;20100;-62
2021/01/09 10:13:29;;;;;;;10.48;5.82;;;15.00;59.10;;;;;;5035633;28;20382;-63
2021/01/09 10:15:58;;;;;;;11.70;6.88;;;15.40;60.40;;;;;;5051935;28;20044;-65
2021/01/09 10:18:26;;;;;;;8.68;5.65;;;15.60;54.80;;;;;;5053332;28;20116;-62
2021/01/09 10:20:52;;;;;;;6.03;4.65;;;15.70;51.30;;;;;;5054383;28;20064;-60
2021/01/09 10:23:18;;;;;;;10.70;5.38;;;15.20;53.90;;;;;;5050891;28;20029;-62
2021/01/09 10:25:44;;;;;;;12.43;5.55;;;15.70;54.10;;;;;;5052667;28;20398;-61
2021/01/09 10:28:09;;;;;;;8.10;5.55;;;15.70;52.10;;;;;;5051687;28;20024;-62
2021/01/09 10:30:36;;;;;;;8.43;4.70;;;15.10;56.70;;;;;;5052897;28;20025;-61
2021/01/09 10:33:02;;;;;;;11.25;6.25;;;15.50;53.60;;;;;;5052267;28;20028;-62
2021/01/09 10:35:28;;;;;;;9.30;5.47;;;15.70;52.20;;;;;;5054660;28;20025;-62
2021/01/09 10:37:54;;;;;;;12.68;4.90;;;15.50;48.50;;;;;;5054156;28;20459;-68
2021/01/09 10:40:20;;;;;;;23.48;5.78;;;14.40;53.20;;;;;;5051187;28;20054;-62
2021/01/09 10:42:46;;;;;;;19.75;6.38;;;13.60;52.50;;;;;;5036095;28;20379;-64
2021/01/09 10:45:15;;;;;;;11.13;5.45;;;12.60;56.80;;;;;;5052585;28;20040;-68
2021/01/09 10:47:42;;;;;;;8.77;4.05;;;11.90;60.10;;;;;;5053249;28;20033;-62
2021/01/09 10:50:08;;;;;;;7.50;4.03;;;11.20;64.70;;;;;;5052855;28;20036;-61
2021/01/09 10:52:34;;;;;;;6.72;3.53;;;10.60;66.50;;;;;;5052960;28;20033;-63
2021/01/09 10:55:00;;;;;;;9.80;3.38;;;10.20;70.20;;;;;;5050142;28;20071;-61
2021/01/09 10:57:26;;;;;;;15.15;4.20;;;9.90;72.40;;;;;;5053575;28;20082;-62
2021/01/09 10:59:52;;;;;;;10.20;3.58;;;9.50;74.10;;;;;;5052059;28;20433;-65
2021/01/09 11:02:18;;;;;;;16.35;3.85;;;9.10;75.80;;;;;;5052536;28;20052;-63
2021/01/09 11:04:44;;;;;;;10.48;3.05;;;9.00;77.20;;;;;;5052800;28;20071;-65
2021/01/09 11:07:09;;;;;;;9.05;3.10;;;8.60;80.30;;;;;;5052874;28;20037;-63
2021/01/09 11:09:35;;;;;;;7.38;3.03;;;8.30;81.80;;;;;;5051636;28;20386;-62
2021/01/09 11:12:01;;;;;;;10.45;4.05;;;8.20;84.00;;;;;;5052699;28;20450;-66
2021/01/09 11:14:26;;;;;;;5.10;3.65;;;8.10;85.20;;;;;;5051686;28;20101;-60
2021/01/09 11:16:56;;;;;;;9.18;3.88;;;7.70;86.20;;;;;;5031514;28;20051;-64
2021/01/09 11:19:22;;;;;;;7.28;3.90;;;7.60;88.00;;;;;;5052170;28;20496;-64
2021/01/09 11:21:48;;;;;;;8.15;3.88;;;7.50;87.60;;;;;;5051475;28;20124;-66
2021/01/09 11:24:14;;;;;;;8.90;4.28;;;7.40;89.20;;;;;;5050644;28;20017;-61
2021/01/09 11:26:39;;;;;;;4.45;2.95;;;7.10;90.30;;;;;;5052998;28;20121;-60
2021/01/09 11:29:05;;;;;;;11.18;3.63;;;6.90;90.70;;;;;;5052751;28;20033;-61
2021/01/09 11:31:31;;;;;;;7.80;4.00;;;6.70;91.80;;;;;;5054349;28;20037;-62
2021/01/09 11:33:56;;;;;;;8.00;4.50;;;6.80;91.90;;;;;;5054596;28;20031;-66
2021/01/09 11:36:23;;;;;;;9.30;4.45;;;6.70;92.30;;;;;;5054030;28;20033;-61
2021/01/09 11:38:49;;;;;;;11.15;4.45;;;6.40;92.70;;;;;;5054386;28;20485;-63
2021/01/09 11:41:15;;;;;;;12.95;4.68;;;6.40;93.10;;;;;;5053131;28;20024;-61
2021/01/09 11:43:42;;;;;;;13.68;5.18;;;6.30;93.20;;;;;;5036049;28;20108;-66
2021/01/09 11:46:08;;;;;;;10.75;6.10;;;6.20;93.50;;;;;;5051612;28;20517;-60
2021/01/09 11:48:35;;;;;;;15.70;5.90;;;6.30;93.70;;;;;;5053571;28;20041;-67
2021/01/09 11:51:00;;;;;;;10.88;5.13;;;6.10;94.10;;;;;;5052531;28;20561;-67
2021/01/09 11:53:27;;;;;;;11.50;5.50;;;6.00;94.00;;;;;;5052870;28;20060;-62
2021/01/09 11:55:53;;;;;;;15.00;5.47;;;6.00;94.10;;;;;;5052026;28;20040;-61
2021/01/09 11:58:18;;;;;;;7.93;5.05;;;6.00;94.40;;;;;;5034319;28;20029;-61
2021/01/09 12:00:45;;;;;;;8.88;5.80;;;6.10;94.70;;;;;;5053266;28;20060;-59
2021/01/09 12:03:11;;;;;;;8.10;5.10;;;6.10;94.80;;;;;;5050370;28;20025;-61
2021/01/09 12:05:37;;;;;;;8.57;5.60;;;6.00;95.30;;;;;;5050777;28;20432;-63
2021/01/09 12:08:04;;;;;;;9.10;5.13;;;5.90;95.70;;;;;;5050531;28;20433;-70
2021/01/09 12:10:30;;;;;;;10.05;5.80;;;5.90;95.90;;;;;;5051168;28;20031;-60
2021/01/09 12:12:56;;;;;;;16.63;6.57;;;5.90;96.00;;;;;;5052039;28;20189;-60
2021/01/09 12:15:22;;;;;;;14.38;6.28;;;5.90;96.10;;;;;;5049921;28;20064;-61
2021/01/09 12:17:48;;;;;;;10.75;5.63;;;5.70;96.30;;;;;;5051892;28;20108;-61
2021/01/09 12:20:13;;;;;;;12.15;6.55;;;5.50;96.60;;;;;;5048765;28;20116;-64
2021/01/09 12:22:40;;;;;;;8.00;5.72;;;5.60;96.90;;;;;;5049273;28;20048;-61
2021/01/09 12:25:06;;;;;;;10.80;6.60;;;5.70;96.50;;;;;;5047244;28;20032;-62
2021/01/09 12:27:33;;;;;;;12.68;6.35;;;5.70;96.50;;;;;;5049548;28;20425;-63
2021/01/09 12:30:00;;;;;;;13.95;6.55;;;5.60;96.70;;;;;;5049812;28;20091;-59
2021/01/09 12:32:25;;;;;;;7.75;5.63;;;5.60;96.80;;;;;;5048730;28;20087;-61
2021/01/09 12:34:51;;;;;;;13.77;6.38;;;5.70;96.50;;;;;;5050974;28;20431;-63
2021/01/09 12:37:16;;;;;;;17.23;6.80;;;5.60;96.60;;;;;;5049762;28;20489;-62
2021/01/09 12:39:42;;;;;;;8.48;5.63;;;5.60;96.70;;;;;;5052212;28;20493;-62
2021/01/09 12:42:12;;;;;;;13.65;5.97;;;5.40;97.00;;;;;;5051425;28;20024;-61
2021/01/09 12:44:38;;;;;;;6.93;5.35;;;5.30;97.10;;;;;;5049695;28;20033;-64
2021/01/09 12:47:04;;;;;;;7.82;5.78;;;5.30;97.50;;;;;;5051006;28;20033;-73
2021/01/09 12:49:30;;;;;;;9.48;5.57;;;5.40;97.40;;;;;;5050418;28;20037;-61
2021/01/09 12:51:59;;;;;;;10.63;5.72;;;5.40;97.00;;;;;;5032982;28;20021;-66